createdAt,value
2022-08-19T00:00:23.576Z,11.90
2022-08-19T00:01:30.205Z,12.45
2022-08-19T00:02:32.414Z,11.80
2022-08-19T00:03:34.495Z,12.13
2022-08-19T00:04:37.674Z,11.95
2022-08-19T00:05:39.603Z,11.70
2022-08-19T00:06:43.277Z,12.70
2022-08-19T00:07:45.073Z,12.55
2022-08-19T00:08:46.561Z,13.05
2022-08-19T00:09:48.084Z,12.10
2022-08-19T00:10:49.569Z,12.30
2022-08-19T00:11:53.896Z,11.85
2022-08-19T00:12:55.683Z,11.45
2022-08-19T00:13:57.632Z,11.68
2022-08-19T00:14:59.155Z,11.07
2022-08-19T00:16:01.562Z,12.15
2022-08-19T00:17:04.521Z,11.73
2022-08-19T00:18:05.985Z,11.70
2022-08-19T00:19:08.166Z,11.88
2022-08-19T00:20:13.571Z,11.55
2022-08-19T00:21:15.813Z,12.57
2022-08-19T00:22:19.267Z,12.77
2022-08-19T00:23:20.887Z,12.20
2022-08-19T00:24:22.946Z,12.30
2022-08-19T00:25:30.103Z,11.30
2022-08-19T00:26:31.995Z,12.65
2022-08-19T00:27:33.873Z,12.13
2022-08-19T00:28:36.719Z,11.68
2022-08-19T00:30:39.919Z,12.18
2022-08-19T00:31:43.141Z,12.85
2022-08-19T00:32:44.688Z,12.48
2022-08-19T00:33:46.206Z,12.27
2022-08-19T00:34:47.641Z,12.93
2022-08-19T00:35:54.620Z,13.20
2022-08-19T00:36:58.610Z,13.18
2022-08-19T00:38:00.555Z,11.80
2022-08-19T00:39:02.134Z,12.45
2022-08-19T00:40:07.135Z,12.77
2022-08-19T00:41:09.717Z,13.30
2022-08-19T00:42:11.593Z,12.65
2022-08-19T00:43:14.625Z,12.05
2022-08-19T00:44:27.217Z,12.80
2022-08-19T00:45:32.526Z,13.50
2022-08-19T00:46:39.674Z,12.25
2022-08-19T00:47:41.974Z,12.80
2022-08-19T00:48:43.439Z,11.52
2022-08-19T00:49:52.220Z,12.65
2022-08-19T00:52:03.157Z,11.85
2022-08-19T00:53:05.242Z,11.90
2022-08-19T00:54:06.776Z,12.48
2022-08-19T00:55:12.759Z,12.20
2022-08-19T00:56:14.295Z,12.60
2022-08-19T00:57:22.141Z,12.65
2022-08-19T00:58:28.887Z,12.40
2022-08-19T01:00:00.546Z,13.35
2022-08-19T01:00:52.250Z,13.18
2022-08-19T01:01:53.820Z,13.13
2022-08-19T01:02:56.253Z,13.30
2022-08-19T01:03:58.844Z,13.18
2022-08-19T01:05:05.717Z,13.30
2022-08-19T01:06:07.822Z,12.85
2022-08-19T01:07:09.426Z,12.57
2022-08-19T01:08:20.209Z,12.85
2022-08-19T01:09:21.708Z,12.63
2022-08-19T01:10:27.570Z,12.13
2022-08-19T01:11:31.012Z,13.02
2022-08-19T01:12:32.892Z,12.18
2022-08-19T01:13:44.600Z,11.68
2022-08-19T01:14:53.422Z,12.88
2022-08-19T01:15:59.480Z,12.57
2022-08-19T01:17:01.925Z,12.80
2022-08-19T01:18:10.711Z,13.48
2022-08-19T01:19:23.390Z,13.75
2022-08-19T01:20:25.718Z,12.63
2022-08-19T01:21:45.236Z,13.50
2022-08-19T01:22:51.408Z,13.40
2022-08-19T01:23:53.014Z,12.85
2022-08-19T01:24:55.332Z,12.68
2022-08-19T01:25:57.980Z,12.13
2022-08-19T01:27:00.601Z,12.57
2022-08-19T01:28:10.720Z,12.80
2022-08-19T01:29:13.204Z,12.75
2022-08-19T01:30:32.277Z,13.27
2022-08-19T01:31:33.761Z,14.23
2022-08-19T01:32:36.235Z,12.38
2022-08-19T01:33:37.878Z,13.70
2022-08-19T01:34:39.771Z,13.60
2022-08-19T01:35:42.840Z,12.27
2022-08-19T01:36:48.154Z,12.80
2022-08-19T01:37:54.421Z,13.00
2022-08-19T01:38:56.969Z,12.40
2022-08-19T01:39:58.615Z,12.23
2022-08-19T01:41:00.837Z,12.00
2022-08-19T01:42:05.329Z,12.95
2022-08-19T01:43:07.536Z,11.52
2022-08-19T01:44:18.794Z,12.80
2022-08-19T01:45:23.998Z,12.63
2022-08-19T01:46:25.765Z,12.55
2022-08-19T01:47:27.280Z,13.13
2022-08-19T01:48:33.490Z,12.00
2022-08-19T01:49:34.981Z,13.70
2022-08-19T01:50:37.865Z,11.93
2022-08-19T01:51:40.044Z,13.82
2022-08-19T01:52:44.735Z,14.00
2022-08-19T01:53:49.230Z,12.90
2022-08-19T01:54:50.649Z,12.13
2022-08-19T01:55:52.265Z,12.40
2022-08-19T01:56:58.775Z,13.30
2022-08-19T01:58:05.053Z,13.60
2022-08-19T01:59:12.665Z,13.75
2022-08-19T02:00:17.057Z,12.15
2022-08-19T02:01:18.927Z,11.77
2022-08-19T02:02:20.477Z,13.77
2022-08-19T02:03:22.264Z,12.55
2022-08-19T02:04:24.443Z,13.13
2022-08-19T02:05:25.992Z,13.40
2022-08-19T02:06:28.745Z,12.65
2022-08-19T02:07:30.452Z,14.13
2022-08-19T02:08:34.634Z,12.57
2022-08-19T02:09:36.482Z,13.55
2022-08-19T02:10:43.288Z,13.43
2022-08-19T02:11:45.212Z,12.88
2022-08-19T02:12:51.151Z,14.15
2022-08-19T02:13:55.014Z,14.93
2022-08-19T02:15:58.630Z,13.30
2022-08-19T02:17:02.060Z,13.88
2022-08-19T02:18:03.938Z,14.13
2022-08-19T02:19:05.571Z,14.60
2022-08-19T02:20:08.001Z,14.35
2022-08-19T02:21:09.474Z,13.60
2022-08-19T02:22:10.959Z,13.98
2022-08-19T02:23:16.056Z,14.40
2022-08-19T02:24:17.942Z,14.20
2022-08-19T02:25:19.469Z,13.75
2022-08-19T02:26:20.921Z,13.30
2022-08-19T02:27:23.425Z,13.80
2022-08-19T02:28:25.191Z,12.68
2022-08-19T02:29:26.675Z,15.18
2022-08-19T02:30:28.148Z,13.43
2022-08-19T02:31:29.747Z,14.35
2022-08-19T02:32:31.735Z,12.70
2022-08-19T02:33:33.502Z,13.73
2022-08-19T02:34:35.668Z,13.95
2022-08-19T02:35:37.135Z,13.63
2022-08-19T02:36:42.354Z,14.25
2022-08-19T02:38:03.696Z,14.35
2022-08-19T02:39:05.210Z,14.35
2022-08-19T02:40:12.174Z,13.82
2022-08-19T02:41:29.794Z,14.88
2022-08-19T02:42:32.297Z,13.65
2022-08-19T02:43:38.571Z,13.40
2022-08-19T02:44:40.018Z,13.68
2022-08-19T02:45:41.774Z,14.05
2022-08-19T02:46:45.729Z,13.88
2022-08-19T02:47:50.271Z,14.60
2022-08-19T02:48:54.337Z,13.43
2022-08-19T02:49:55.772Z,14.05
2022-08-19T02:50:57.235Z,13.48
2022-08-19T02:51:58.675Z,13.85
2022-08-19T02:53:00.622Z,13.50
2022-08-19T02:54:03.279Z,12.77
2022-08-19T02:55:05.861Z,14.07
2022-08-19T02:56:08.758Z,13.40
2022-08-19T02:57:10.573Z,14.35
2022-08-19T02:58:12.836Z,13.77
2022-08-19T02:59:14.303Z,14.05
2022-08-19T03:00:16.675Z,13.90
2022-08-19T03:01:28.475Z,13.15
2022-08-19T03:02:31.500Z,12.85
2022-08-19T03:03:33.736Z,12.95
2022-08-19T03:04:35.442Z,14.10
2022-08-19T03:05:45.956Z,13.60
2022-08-19T03:06:50.242Z,13.75
2022-08-19T03:07:52.006Z,13.20
2022-08-19T03:08:54.151Z,13.70
2022-08-19T03:09:55.655Z,13.85
2022-08-19T03:10:57.093Z,13.10
2022-08-19T03:11:58.584Z,13.43
2022-08-19T03:13:00.657Z,14.02
2022-08-19T03:14:08.618Z,13.55
2022-08-19T03:15:10.410Z,13.98
2022-08-19T03:16:13.382Z,14.38
2022-08-19T03:17:14.928Z,14.55
2022-08-19T03:18:18.144Z,12.65
2022-08-19T03:19:22.172Z,12.95
2022-08-19T03:20:23.612Z,13.57
2022-08-19T03:21:27.677Z,14.65
2022-08-19T03:22:29.722Z,13.32
2022-08-19T03:23:31.564Z,13.88
2022-08-19T03:24:33.163Z,14.00
2022-08-19T03:25:41.238Z,13.75
2022-08-19T03:26:45.794Z,13.27
2022-08-19T03:27:50.261Z,14.07
2022-08-19T03:28:57.761Z,13.43
2022-08-19T03:30:00.408Z,14.75
2022-08-19T03:31:41.657Z,13.75
2022-08-19T03:32:32.947Z,13.88
2022-08-19T03:33:35.815Z,14.05
2022-08-19T03:35:39.939Z,13.35
2022-08-19T03:36:42.043Z,12.77
2022-08-19T03:37:43.584Z,14.95
2022-08-19T03:38:48.971Z,14.85
2022-08-19T03:39:57.901Z,14.88
2022-08-19T03:41:04.139Z,14.10
2022-08-19T03:42:33.167Z,14.43
2022-08-19T03:43:29.542Z,13.57
2022-08-19T03:45:32.806Z,13.55
2022-08-19T03:46:34.963Z,15.15
2022-08-19T03:47:36.820Z,15.05
2022-08-19T03:48:40.635Z,14.90
2022-08-19T03:49:42.208Z,15.10
2022-08-19T03:50:43.820Z,13.65
2022-08-19T03:51:46.821Z,15.70
2022-08-19T03:52:52.219Z,14.13
2022-08-19T03:53:56.035Z,14.38
2022-08-19T03:54:57.674Z,14.88
2022-08-19T03:56:06.062Z,15.02
2022-08-19T03:57:07.726Z,15.60
2022-08-19T03:58:09.546Z,16.35
2022-08-19T03:59:15.374Z,15.02
2022-08-19T04:00:17.492Z,15.45
2022-08-19T04:01:22.018Z,16.25
2022-08-19T04:02:36.766Z,15.00
2022-08-19T04:03:39.284Z,16.45
2022-08-19T04:04:44.265Z,16.90
2022-08-19T04:05:47.647Z,15.15
2022-08-19T04:06:49.743Z,15.90
2022-08-19T04:07:51.549Z,16.13
2022-08-19T04:08:55.496Z,16.40
2022-08-19T04:09:57.218Z,16.88
2022-08-19T04:10:58.709Z,15.40
2022-08-19T04:12:03.560Z,16.25
2022-08-19T04:13:07.499Z,17.52
2022-08-19T04:14:11.687Z,15.75
2022-08-19T04:15:13.148Z,16.13
2022-08-19T04:16:15.528Z,17.45
2022-08-19T04:17:17.379Z,16.23
2022-08-19T04:18:18.895Z,16.55
2022-08-19T04:19:21.269Z,16.63
2022-08-19T04:20:22.755Z,16.42
2022-08-19T04:21:27.446Z,16.48
2022-08-19T04:22:29.215Z,17.40
2022-08-19T04:23:31.288Z,16.60
2022-08-19T04:24:34.912Z,16.23
2022-08-19T04:25:39.223Z,16.05
2022-08-19T04:26:41.648Z,16.63
2022-08-19T04:27:47.594Z,16.40
2022-08-19T04:28:50.098Z,17.30
2022-08-19T04:29:51.546Z,15.35
2022-08-19T04:30:56.729Z,16.48
2022-08-19T04:31:59.624Z,16.88
2022-08-19T04:33:01.447Z,16.65
2022-08-19T04:34:06.062Z,16.25
2022-08-19T04:35:18.595Z,17.88
2022-08-19T04:36:25.144Z,16.80
2022-08-19T04:37:33.683Z,17.48
2022-08-19T04:38:37.166Z,15.30
2022-08-19T04:39:58.661Z,15.85
2022-08-19T04:41:22.856Z,15.60
2022-08-19T04:42:40.342Z,16.27
2022-08-19T04:43:42.176Z,16.48
2022-08-19T04:44:46.389Z,16.67
2022-08-19T04:45:48.155Z,16.92
2022-08-19T04:46:51.680Z,17.92
2022-08-19T04:47:58.627Z,17.55
2022-08-19T04:49:23.199Z,17.42
2022-08-19T04:50:27.012Z,16.10
2022-08-19T04:51:29.138Z,16.30
2022-08-19T04:52:32.954Z,17.38
2022-08-19T04:53:37.977Z,16.80
2022-08-19T04:54:40.080Z,16.25
2022-08-19T04:55:43.435Z,15.88
2022-08-19T04:56:45.000Z,17.60
2022-08-19T04:57:46.766Z,15.82
2022-08-19T04:58:48.586Z,16.55
2022-08-19T04:59:50.573Z,16.60
2022-08-19T05:00:52.268Z,17.17
2022-08-19T05:01:53.779Z,16.13
2022-08-19T05:02:55.518Z,16.38
2022-08-19T05:03:58.858Z,17.30
2022-08-19T05:05:01.453Z,16.88
2022-08-19T05:06:12.299Z,16.80
2022-08-19T05:07:13.782Z,16.45
2022-08-19T05:08:30.732Z,17.00
2022-08-19T05:09:57.180Z,16.75
2022-08-19T05:10:54.818Z,15.70
2022-08-19T05:11:56.733Z,16.10
2022-08-19T05:12:58.675Z,16.15
2022-08-19T05:14:00.808Z,17.35
2022-08-19T05:15:06.684Z,14.98
2022-08-19T05:16:08.160Z,16.45
2022-08-19T05:17:26.594Z,16.80
2022-08-19T05:18:48.384Z,17.38
2022-08-19T05:20:08.087Z,16.02
2022-08-19T05:21:31.045Z,16.38
2022-08-19T05:22:38.641Z,16.88
2022-08-19T05:23:40.232Z,15.88
2022-08-19T05:25:02.401Z,16.17
2022-08-19T05:26:03.995Z,16.40
2022-08-19T05:27:06.574Z,16.48
2022-08-19T05:28:08.063Z,16.17
2022-08-19T05:29:11.173Z,16.73
2022-08-19T05:30:13.092Z,17.80
2022-08-19T05:31:14.668Z,16.98
2022-08-19T05:32:16.509Z,17.38
2022-08-19T05:33:19.224Z,17.42
2022-08-19T05:34:23.583Z,15.60
2022-08-19T05:35:25.058Z,17.10
2022-08-19T05:36:28.620Z,17.48
2022-08-19T05:37:30.144Z,16.70
2022-08-19T05:38:31.644Z,17.05
2022-08-19T05:39:36.886Z,16.30
2022-08-19T05:40:40.092Z,16.77
2022-08-19T05:41:47.294Z,18.60
2022-08-19T05:42:55.243Z,16.67
2022-08-19T05:43:58.757Z,16.52
2022-08-19T05:45:00.243Z,16.23
2022-08-19T05:46:01.756Z,16.50
2022-08-19T05:47:06.698Z,16.42
2022-08-19T05:48:08.328Z,16.40
2022-08-19T05:49:10.025Z,16.00
2022-08-19T05:50:11.569Z,15.73
2022-08-19T05:51:13.163Z,16.00
2022-08-19T05:52:25.833Z,15.15
2022-08-19T05:53:27.864Z,16.05
2022-08-19T05:54:29.714Z,16.85
2022-08-19T05:55:31.540Z,16.05
2022-08-19T05:56:33.240Z,16.10
2022-08-19T05:57:34.684Z,15.57
2022-08-19T05:58:37.946Z,14.90
2022-08-19T05:59:39.430Z,14.75
2022-08-19T06:00:43.372Z,16.38
2022-08-19T06:01:46.882Z,15.43
2022-08-19T06:02:48.509Z,16.63
2022-08-19T06:03:50.132Z,16.58
2022-08-19T06:04:51.593Z,16.40
2022-08-19T06:05:54.163Z,14.88
2022-08-19T06:06:55.815Z,15.70
2022-08-19T06:07:57.822Z,16.20
2022-08-19T06:09:00.082Z,15.00
2022-08-19T06:10:01.663Z,16.58
2022-08-19T06:11:18.204Z,14.55
2022-08-19T06:12:19.665Z,15.68
2022-08-19T06:13:21.240Z,15.32
2022-08-19T06:14:27.782Z,15.23
2022-08-19T06:15:29.750Z,14.13
2022-08-19T06:16:32.720Z,14.98
2022-08-19T06:17:35.815Z,14.30
2022-08-19T06:18:37.326Z,13.60
2022-08-19T06:19:40.764Z,14.63
2022-08-19T06:20:55.465Z,14.98
2022-08-19T06:21:59.466Z,13.65
2022-08-19T06:23:01.208Z,13.00
2022-08-19T06:24:03.377Z,13.48
2022-08-19T06:25:05.384Z,12.98
2022-08-19T06:26:07.005Z,13.43
2022-08-19T06:27:08.975Z,12.88
2022-08-19T06:28:15.302Z,13.13
2022-08-19T06:29:23.686Z,12.07
2022-08-19T06:30:25.390Z,12.95
2022-08-19T06:31:29.715Z,12.65
2022-08-19T06:32:31.402Z,12.70
2022-08-19T06:33:32.865Z,13.68
2022-08-19T06:34:35.477Z,12.95
2022-08-19T06:35:41.051Z,12.70
2022-08-19T06:36:45.664Z,13.65
2022-08-19T06:37:48.048Z,12.65
2022-08-19T06:38:49.598Z,13.43
2022-08-19T06:39:51.689Z,13.38
2022-08-19T06:41:02.206Z,13.38
2022-08-19T06:42:12.462Z,13.40
2022-08-19T06:43:16.877Z,13.45
2022-08-19T06:44:23.004Z,14.35
2022-08-19T06:45:35.340Z,13.95
2022-08-19T06:46:38.678Z,13.38
2022-08-19T06:47:44.808Z,14.18
2022-08-19T06:48:47.263Z,13.70
2022-08-19T06:49:49.093Z,14.65
2022-08-19T06:50:52.477Z,13.90
2022-08-19T06:51:54.361Z,13.05
2022-08-19T06:52:56.160Z,13.82
2022-08-19T06:53:58.014Z,12.98
2022-08-19T06:55:00.201Z,12.80
2022-08-19T06:56:03.435Z,13.45
2022-08-19T06:57:05.217Z,12.18
2022-08-19T06:58:06.749Z,12.68
2022-08-19T06:59:12.319Z,13.27
2022-08-19T07:00:15.040Z,12.48
2022-08-19T07:01:16.645Z,13.48
2022-08-19T07:02:19.353Z,12.90
2022-08-19T07:04:30.709Z,13.20
2022-08-19T07:05:32.296Z,13.77
2022-08-19T07:06:44.151Z,13.82
2022-08-19T07:07:47.660Z,13.00
2022-08-19T07:08:49.622Z,14.25
2022-08-19T07:10:00.042Z,13.40
2022-08-19T07:11:09.382Z,13.95
2022-08-19T07:12:15.752Z,13.05
2022-08-19T07:13:17.462Z,13.48
2022-08-19T07:14:22.117Z,12.93
2022-08-19T07:15:24.218Z,14.50
2022-08-19T07:16:28.986Z,14.23
2022-08-19T07:17:31.295Z,14.05
2022-08-19T07:18:33.239Z,14.80
2022-08-19T07:19:36.558Z,14.38
2022-08-19T07:20:38.011Z,14.43
2022-08-19T07:22:42.251Z,14.48
2022-08-19T07:23:44.680Z,15.70
2022-08-19T07:24:51.165Z,14.32
2022-08-19T07:25:53.466Z,14.13
2022-08-19T07:27:02.464Z,15.05
2022-08-19T07:29:06.520Z,13.82
2022-08-19T07:30:11.621Z,14.40
2022-08-19T07:31:22.762Z,14.13
2022-08-19T07:32:28.537Z,15.10
2022-08-19T07:33:33.362Z,16.05
2022-08-19T07:34:38.457Z,15.48
2022-08-19T07:35:41.865Z,14.95
2022-08-19T07:36:44.820Z,14.45
2022-08-19T07:37:46.957Z,15.43
2022-08-19T07:38:51.126Z,15.27
2022-08-19T07:39:52.671Z,14.18
2022-08-19T07:40:54.904Z,14.35
2022-08-19T07:41:58.811Z,15.10
2022-08-19T07:43:00.365Z,14.63
2022-08-19T07:44:04.845Z,15.18
2022-08-19T07:45:08.263Z,14.98
2022-08-19T07:47:47.395Z,14.45
2022-08-19T07:48:41.808Z,14.70
2022-08-19T07:49:43.705Z,15.32
2022-08-19T07:50:45.443Z,15.55
2022-08-19T07:52:03.158Z,14.73
2022-08-19T07:53:04.695Z,14.55
2022-08-19T07:54:06.214Z,13.75
2022-08-19T07:55:40.139Z,14.20
2022-08-19T07:56:31.644Z,14.32
2022-08-19T07:57:33.203Z,14.63
2022-08-19T07:58:37.264Z,15.82
2022-08-19T07:59:38.793Z,15.48
2022-08-19T08:00:41.624Z,14.20
2022-08-19T08:02:44.918Z,15.85
2022-08-19T08:04:07.394Z,13.73
2022-08-19T08:05:29.333Z,14.18
2022-08-19T08:08:09.675Z,13.85
2022-08-19T08:09:12.479Z,14.77
2022-08-19T08:11:23.974Z,13.77
2022-08-19T08:12:34.747Z,13.85
2022-08-19T08:13:36.634Z,13.73
2022-08-19T08:14:45.221Z,14.85
2022-08-19T08:15:48.584Z,14.93
2022-08-19T08:16:54.149Z,14.95
2022-08-19T08:17:55.642Z,14.90
2022-08-19T08:18:57.397Z,14.63
2022-08-19T08:19:59.308Z,15.70
2022-08-19T08:21:00.937Z,14.82
2022-08-19T08:22:03.908Z,14.82
2022-08-19T08:23:24.723Z,15.52
2022-08-19T08:24:31.858Z,13.70
2022-08-19T08:25:34.402Z,14.52
2022-08-19T08:26:36.880Z,15.15
2022-08-19T08:27:41.967Z,15.43
2022-08-19T08:28:48.004Z,15.20
2022-08-19T08:29:51.467Z,14.52
2022-08-19T08:30:53.372Z,14.98
2022-08-19T08:31:59.612Z,15.18
2022-08-19T08:33:02.531Z,14.55
2022-08-19T08:34:04.453Z,13.90
2022-08-19T08:35:07.911Z,13.18
2022-08-19T08:36:10.125Z,13.60
2022-08-19T08:37:11.608Z,14.25
2022-08-19T08:38:14.324Z,14.95
2022-08-19T08:39:18.376Z,14.75
2022-08-19T08:40:28.829Z,14.65
2022-08-19T08:41:59.394Z,13.40
2022-08-19T08:43:10.750Z,14.02
2022-08-19T08:44:21.880Z,13.35
2022-08-19T08:45:24.970Z,13.35
2022-08-19T08:46:52.838Z,13.95
2022-08-19T08:48:02.770Z,12.80
2022-08-19T08:49:17.834Z,13.18
2022-08-19T08:51:35.201Z,11.80
2022-08-19T08:52:49.833Z,12.20
2022-08-19T08:53:56.161Z,12.32
2022-08-19T08:55:01.185Z,13.48
2022-08-19T08:56:06.119Z,13.18
2022-08-19T08:57:18.952Z,12.52
2022-08-19T08:58:29.464Z,12.90
2022-08-19T08:59:35.278Z,12.20
2022-08-19T09:00:43.859Z,13.57
2022-08-19T09:01:45.824Z,11.90
2022-08-19T09:02:50.961Z,12.82
2022-08-19T09:03:53.400Z,13.23
2022-08-19T09:04:55.735Z,11.77
2022-08-19T09:06:15.754Z,12.00
2022-08-19T09:07:46.887Z,12.23
2022-08-19T09:09:11.893Z,12.68
2022-08-19T09:10:29.541Z,12.35
2022-08-19T09:11:44.519Z,11.95
2022-08-19T09:13:09.713Z,11.98
2022-08-19T09:14:50.341Z,12.15
2022-08-19T09:16:02.113Z,13.35
2022-08-19T09:17:04.399Z,13.38
2022-08-19T09:18:07.495Z,12.68
2022-08-19T09:19:09.883Z,13.55
2022-08-19T09:20:11.488Z,14.00
2022-08-19T09:21:13.569Z,14.63
2022-08-19T09:22:15.087Z,13.40
2022-08-19T09:23:27.376Z,13.23
2022-08-19T09:24:31.129Z,13.52
2022-08-19T09:25:35.330Z,13.73
2022-08-19T09:26:52.587Z,12.93
2022-08-19T09:28:02.598Z,13.95
2022-08-19T09:29:06.630Z,14.23
2022-08-19T09:30:10.093Z,14.77
2022-08-19T09:31:16.175Z,14.40
2022-08-19T09:32:26.697Z,15.98
2022-08-19T09:33:28.477Z,13.23
2022-08-19T09:34:33.113Z,12.77
2022-08-19T09:35:50.194Z,12.73
2022-08-19T09:36:56.523Z,14.07
2022-08-19T09:38:00.091Z,13.35
2022-08-19T09:39:01.944Z,13.30
2022-08-19T09:40:05.307Z,13.98
2022-08-19T09:41:09.551Z,13.90
2022-08-19T09:42:16.516Z,13.15
2022-08-19T09:43:44.624Z,13.48
2022-08-19T09:44:49.500Z,14.23
2022-08-19T09:45:50.951Z,13.82
2022-08-19T09:46:52.443Z,12.48
2022-08-19T09:47:55.318Z,12.68
2022-08-19T09:49:06.014Z,13.13
2022-08-19T09:50:12.101Z,12.50
2022-08-19T09:51:24.989Z,13.38
2022-08-19T09:52:32.705Z,13.20
2022-08-19T09:53:38.808Z,12.07
2022-08-19T09:54:46.017Z,12.75
2022-08-19T09:55:56.333Z,12.77
2022-08-19T09:57:01.360Z,13.32
2022-08-19T09:58:06.624Z,12.55
2022-08-19T09:59:08.265Z,12.63
2022-08-19T10:00:10.911Z,12.07
2022-08-19T10:01:29.278Z,13.40
2022-08-19T10:02:30.989Z,12.15
2022-08-19T10:03:35.377Z,12.18
2022-08-19T10:04:55.466Z,13.20
2022-08-19T10:05:58.820Z,11.50
2022-08-19T10:07:00.317Z,12.15
2022-08-19T10:08:02.029Z,12.52
2022-08-19T10:09:09.169Z,12.38
2022-08-19T10:10:11.161Z,12.25
2022-08-19T10:11:27.802Z,12.60
2022-08-19T10:12:35.480Z,12.25
2022-08-19T10:13:37.922Z,12.77
2022-08-19T10:14:40.376Z,11.95
2022-08-19T10:15:47.665Z,12.23
2022-08-19T10:16:50.399Z,13.05
2022-08-19T10:17:55.483Z,12.40
2022-08-19T10:18:59.020Z,12.68
2022-08-19T10:20:01.051Z,13.27
2022-08-19T10:21:23.762Z,12.35
2022-08-19T10:22:27.160Z,11.90
2022-08-19T10:23:33.635Z,12.25
2022-08-19T10:24:35.671Z,10.77
2022-08-19T10:25:38.450Z,11.68
2022-08-19T10:27:48.216Z,10.88
2022-08-19T10:28:53.798Z,11.20
2022-08-19T10:29:56.268Z,10.52
2022-08-19T10:31:08.630Z,12.13
2022-08-19T10:32:11.010Z,12.27
2022-08-19T10:33:12.939Z,11.65
2022-08-19T10:34:27.038Z,12.10
2022-08-19T10:35:30.463Z,11.65
2022-08-19T10:36:36.217Z,11.25
2022-08-19T10:38:02.463Z,11.00
2022-08-19T10:39:08.590Z,10.68
2022-08-19T10:40:12.338Z,11.00
2022-08-19T10:41:25.682Z,10.52
2022-08-19T10:42:27.154Z,11.93
2022-08-19T10:43:28.621Z,9.70
2022-08-19T10:44:32.324Z,11.95
2022-08-19T10:45:34.228Z,11.38
2022-08-19T10:46:48.717Z,12.23
2022-08-19T10:47:50.498Z,11.50
2022-08-19T10:48:53.160Z,12.32
2022-08-19T10:50:14.322Z,10.82
2022-08-19T10:51:51.850Z,11.23
2022-08-19T10:52:53.342Z,11.02
2022-08-19T10:53:59.156Z,10.63
2022-08-19T10:56:50.537Z,11.52
2022-08-19T10:58:02.140Z,11.35
2022-08-19T10:59:04.876Z,11.13
2022-08-19T11:00:06.995Z,11.77
2022-08-19T11:01:08.547Z,12.13
2022-08-19T11:02:12.504Z,11.05
2022-08-19T11:03:14.025Z,11.00
2022-08-19T11:04:18.526Z,12.25
2022-08-19T11:05:20.082Z,12.57
2022-08-19T11:06:21.865Z,12.60
2022-08-19T11:07:26.126Z,11.88
2022-08-19T11:08:28.592Z,11.25
2022-08-19T11:09:34.039Z,11.45
2022-08-19T11:10:36.132Z,11.95
2022-08-19T11:11:41.261Z,11.48
2022-08-19T11:12:42.833Z,12.15
2022-08-19T11:13:46.319Z,11.95
2022-08-19T11:14:51.260Z,11.27
2022-08-19T11:16:05.305Z,11.55
2022-08-19T11:17:09.150Z,11.82
2022-08-19T11:18:13.203Z,11.27
2022-08-19T11:19:17.990Z,10.38
2022-08-19T11:20:19.506Z,11.25
2022-08-19T11:21:24.088Z,11.20
2022-08-19T11:22:28.848Z,10.35
2022-08-19T11:23:39.599Z,11.32
2022-08-19T11:24:41.084Z,12.30
2022-08-19T11:25:42.630Z,10.43
2022-08-19T11:26:45.386Z,10.45
2022-08-19T11:28:49.570Z,12.00
2022-08-19T11:29:52.000Z,11.15
2022-08-19T11:30:53.620Z,11.60
2022-08-19T11:31:55.904Z,11.43
2022-08-19T11:32:57.489Z,10.80
2022-08-19T11:34:00.841Z,11.15
2022-08-19T11:35:02.409Z,10.20
2022-08-19T11:36:04.212Z,10.68
2022-08-19T11:37:07.136Z,10.68
2022-08-19T11:38:09.929Z,11.15
2022-08-19T11:39:13.845Z,11.15
2022-08-19T11:40:15.554Z,10.25
2022-08-19T11:41:19.969Z,11.27
2022-08-19T11:42:40.048Z,11.77
2022-08-19T11:43:41.725Z,11.70
2022-08-19T11:44:44.269Z,11.27
2022-08-19T11:45:45.792Z,10.98
2022-08-19T11:46:48.547Z,11.32
2022-08-19T11:47:50.304Z,11.05
2022-08-19T11:48:55.476Z,10.25
2022-08-19T11:49:57.194Z,10.93
2022-08-19T11:50:59.013Z,10.95
2022-08-19T11:52:00.578Z,11.73
2022-08-19T11:53:02.122Z,9.65
2022-08-19T11:54:06.397Z,10.43
2022-08-19T11:55:08.984Z,10.45
2022-08-19T11:56:10.749Z,11.32
2022-08-19T11:57:12.225Z,10.65
2022-08-19T11:58:18.909Z,9.88
2022-08-19T11:59:20.553Z,11.02
2022-08-19T12:00:22.574Z,12.15
2022-08-19T12:01:26.282Z,10.10
2022-08-19T12:02:27.795Z,11.60
2022-08-19T12:03:29.418Z,12.00
2022-08-19T12:04:31.023Z,11.20
2022-08-19T12:05:32.827Z,11.60
2022-08-19T12:06:40.001Z,12.18
2022-08-19T12:07:43.584Z,11.73
2022-08-19T12:08:45.699Z,13.07
2022-08-19T12:09:48.603Z,12.57
2022-08-19T12:10:50.285Z,12.70
2022-08-19T12:11:51.928Z,12.13
2022-08-19T12:12:53.806Z,12.02
2022-08-19T12:14:00.667Z,12.13
2022-08-19T12:15:03.086Z,12.73
2022-08-19T12:16:13.631Z,13.73
2022-08-19T12:17:15.227Z,12.52
2022-08-19T12:18:16.770Z,13.07
2022-08-19T12:19:21.759Z,12.73
2022-08-19T12:20:25.454Z,11.55
2022-08-19T12:21:29.520Z,11.90
2022-08-19T12:22:31.021Z,12.98
2022-08-19T12:23:32.618Z,11.88
2022-08-19T12:24:35.197Z,11.23
2022-08-19T12:25:37.924Z,12.88
2022-08-19T12:26:53.756Z,13.00
2022-08-19T12:27:57.486Z,12.32
2022-08-19T12:29:00.451Z,13.43
2022-08-19T12:30:03.950Z,12.65
2022-08-19T12:31:06.581Z,13.20
2022-08-19T12:32:10.396Z,12.57
2022-08-19T12:33:14.926Z,13.00
2022-08-19T12:35:21.063Z,12.57
2022-08-19T12:36:25.053Z,12.57
2022-08-19T12:37:26.538Z,11.77
2022-08-19T12:38:28.172Z,12.68
2022-08-19T12:39:29.672Z,13.43
2022-08-19T12:40:31.525Z,13.35
2022-08-19T12:41:33.047Z,13.05
2022-08-19T12:42:34.539Z,14.40
2022-08-19T12:43:36.799Z,14.07
2022-08-19T12:44:41.638Z,13.85
2022-08-19T12:45:44.600Z,13.52
2022-08-19T12:46:50.028Z,13.52
2022-08-19T12:47:55.726Z,13.20
2022-08-19T12:48:57.645Z,13.50
2022-08-19T12:51:08.408Z,12.50
2022-08-19T12:52:10.158Z,12.82
2022-08-19T12:53:11.802Z,13.35
2022-08-19T12:54:13.605Z,12.98
2022-08-19T12:55:15.549Z,12.48
2022-08-19T12:56:22.293Z,14.23
2022-08-19T12:57:32.866Z,14.10
2022-08-19T12:58:35.489Z,13.82
2022-08-19T12:59:38.615Z,13.82
2022-08-19T13:00:40.658Z,14.07
2022-08-19T13:01:42.887Z,14.73
2022-08-19T13:02:46.654Z,15.25
2022-08-19T13:03:48.184Z,14.75
2022-08-19T13:04:52.554Z,13.10
2022-08-19T13:05:54.057Z,13.50
2022-08-19T13:06:55.530Z,14.40
2022-08-19T13:08:00.421Z,13.65
2022-08-19T13:09:02.006Z,12.75
2022-08-19T13:10:04.610Z,13.43
2022-08-19T13:11:19.653Z,16.05
2022-08-19T13:13:27.035Z,13.57
2022-08-19T13:14:28.485Z,13.45
2022-08-19T13:15:32.231Z,14.75
2022-08-19T13:16:34.273Z,13.68
2022-08-19T13:17:36.788Z,14.38
2022-08-19T13:18:39.641Z,14.98
2022-08-19T13:20:42.986Z,14.75
2022-08-19T13:22:00.211Z,14.07
2022-08-19T13:23:02.115Z,14.23
2022-08-19T13:24:04.005Z,14.43
2022-08-19T13:25:07.527Z,14.98
2022-08-19T13:26:10.843Z,15.05
2022-08-19T13:27:12.472Z,14.48
2022-08-19T13:28:13.964Z,14.65
2022-08-19T13:29:36.805Z,16.20
2022-08-19T13:30:56.993Z,14.82
2022-08-19T13:32:18.669Z,16.45
2022-08-19T13:33:20.457Z,14.05
2022-08-19T13:34:32.769Z,15.48
2022-08-19T13:35:34.327Z,15.75
2022-08-19T13:36:36.552Z,17.02
2022-08-19T13:37:43.726Z,15.27
2022-08-19T13:38:45.825Z,15.60
2022-08-19T13:39:48.363Z,15.48
2022-08-19T13:40:52.470Z,15.82
2022-08-19T13:41:54.094Z,16.08
2022-08-19T13:42:59.040Z,15.65
2022-08-19T13:44:03.797Z,15.98
2022-08-19T13:45:07.765Z,16.50
2022-08-19T13:46:14.993Z,15.02
2022-08-19T13:47:16.799Z,15.05
2022-08-19T13:48:19.273Z,14.70
2022-08-19T13:49:21.555Z,16.08
2022-08-19T13:50:27.633Z,16.60
2022-08-19T13:51:30.485Z,15.98
2022-08-19T13:52:32.100Z,16.35
2022-08-19T13:53:33.674Z,16.58
2022-08-19T13:54:35.404Z,16.90
2022-08-19T13:55:40.014Z,16.65
2022-08-19T13:56:44.077Z,15.30
2022-08-19T13:57:46.570Z,17.38
2022-08-19T13:58:48.245Z,17.08
2022-08-19T13:59:49.756Z,17.65
2022-08-19T14:00:51.491Z,15.45
2022-08-19T14:01:54.293Z,17.25
2022-08-19T14:02:57.645Z,16.90
2022-08-19T14:03:59.207Z,15.88
2022-08-19T14:05:01.088Z,15.23
2022-08-19T14:06:02.944Z,14.75
2022-08-19T14:07:04.776Z,15.38
2022-08-19T14:08:06.426Z,14.70
2022-08-19T14:09:08.676Z,16.23
2022-08-19T14:10:12.941Z,14.80
2022-08-19T14:11:15.486Z,12.38
2022-08-19T14:12:28.204Z,12.23
2022-08-19T14:13:30.604Z,12.75
2022-08-19T14:14:32.553Z,12.07
2022-08-19T14:15:34.158Z,10.10
2022-08-19T14:16:35.614Z,11.48
2022-08-19T14:17:42.363Z,10.77